中部国際空港の過去48時間の天気

中部国際空港 (Chubu Centrair International)

現在時刻: 7/18 13:55 JST (7/18 04:55 UTC) 以下の時間は現地時間です。

過去48時間のMETAR気象情報
時間 風向 風速(m/s) 視程 気温(℃) 湿度(%) 気圧(hPa) 天気現象
18 13:30 5 8000m 32 75 1008
18 13:00 4 8000m 31 79 1008
18 12:30 南南西 4 8000m 31 79 1009
18 12:00 南南西 5 7000m 31 75 1009
18 11:30 南南西 4 7000m 30 79 1009
18 11:00 南南西 4 7000m 30 79 1010
18 10:30 南南西 3 7000m 30 84 1010
18 10:00 南南西 3 7000m 30 79 1010
18 09:30 西南西 2 7000m 29 84 1010
18 09:00 西 2 7000m 30 79 1010
18 08:30 西 2 7000m 29 84 1011
18 08:00 西北西 3 7000m 29 84 1011
18 07:30 北西 3 7000m 28 89 1011
18 07:00 北西 3 8000m 28 89 1011
18 06:30 北西 3 8000m 28 89 1011
18 06:00 北北西 2 8000m 28 89 1011
18 05:30 北北西 2 8000m 28 89 1011
18 05:00 北北西 2 8000m 27 94 1011
18 04:30 北北東 2 9000m 27 94 1011
18 04:00 北東 2 9000m 27 89 1011
18 03:30 東北東 2 9000m 28 84 1011
18 03:00 東北東 2 10km以上 28 89 1011
18 02:30 3 10km以上 28 84 1011
18 02:00 4 10km以上 28 84 1010
18 01:30 4 10km以上 28 89 1010
18 01:00 5 10km以上 28 89 1010
18 00:30 4 10km以上 28 89 1010
18 00:00 5 10km以上 28 89 1010
17 23:30 5 10km以上 28 89 1010
17 23:00 5 10km以上 28 89 1010
17 22:30 東南東 6 10km以上 28 89 1010
17 22:00 東南東 6 10km以上 28 89 1010
17 21:30 東南東 5 10km以上 28 89 1010
17 21:00 東南東 6 10km以上 29 84 1010
17 20:30 東南東 5 10km以上 29 84 1010
17 20:00 東南東 5 10km以上 29 84 1010
17 19:30 東南東 5 10km以上 30 79 1010
17 19:00 東南東 5 10km以上 30 79 1009
17 18:30 南東 4 10km以上 31 75 1009
17 18:00 南東 5 10km以上 31 75 1009
17 17:30 南東 5 9000m 32 71 1009
17 17:00 南南東 5 9000m 32 71 1009
17 16:30 南南東 5 9000m 32 71 1009
17 16:00 6 9000m 32 71 1009
17 15:30 6 9000m 31 79 1009
17 15:00 6 8000m 31 79 1009
17 14:30 6 8000m 31 79 1009
17 14:00 6 8000m 31 79 1010
17 13:30 4 9000m 30 84 1010
17 13:00 4 9000m 31 79 1010
17 12:30 南南西 3 8000m 30 79 1010
17 12:00 南南西 3 9000m 30 79 1011
17 11:30 南西 2 9000m 30 79 1011
17 11:00 西 3 8000m 31 75 1011
17 10:30 西 3 8000m 31 75 1011
17 10:00 西 3 8000m 30 79 1012
17 09:30 西 2 8000m 30 79 1012
17 09:00 西北西 3 8000m 29 79 1012
17 08:30 不定 2 8000m 29 79 1012
17 08:00 北東 2 8000m 29 79 1012
17 07:00 3 8000m 28 84 1012
17 06:00 東北東 3 7000m 28 84 1012
17 05:00 東北東 2 8000m 28 84 1012
17 04:30 3 8000m 28 84 1012
17 04:00 4 10km以上 28 84 1012
17 03:30 3 10km以上 28 84 1012
17 03:00 東南東 3 10km以上 28 84 1011
17 02:30 東南東 4 10km以上 28 84 1011
17 02:00 東南東 5 10km以上 28 84 1011
17 01:30 東南東 6 10km以上 28 84 1011
17 01:00 東南東 6 10km以上 28 84 1011
17 00:30 東南東 6 10km以上 28 84 1011
17 00:00 東南東 5 10km以上 28 84 1011
16 23:30 東南東 6 10km以上 28 84 1011
16 23:00 東南東 6 9000m 28 84 1011
16 22:30 東南東 7 9000m 28 84 1011
16 22:00 東南東 6 9000m 28 89 1012
16 21:30 東南東 7 9000m 28 84 1012
16 21:00 東南東 7 9000m 29 79 1011
16 20:30 6 9000m 29 84 1011
16 20:00 6 9000m 29 84 1011
16 19:30 4 9000m 30 75 1010
16 19:00 東南東 4 10km以上 31 70 1010
16 18:30 南東 4 10km以上 31 70 1010
16 18:00 南南東 4 10km以上 32 71 1009
16 17:30 南南東 4 10km以上 32 71 1009
16 17:00 南南東 5 10km以上 33 63 1009
16 16:30 南南東 4 10km以上 33 67 1009
16 16:00 南南東 5 10km以上 33 67 1009
16 15:30 5 10km以上 32 75 1010
16 15:00 6 10km以上 32 71 1010
16 14:30 7 10km以上 31 75 1010
16 14:00 6 10km以上 32 71 1010
RJGG 180430Z 18010KT 8000 FEW015 BKN/// 32/27 Q1008 NOSIG
RJGG 180400Z 19008KT 8000 FEW015 BKN/// 31/27 Q1008 NOSIG
RJGG 180330Z 21008KT 8000 FEW015 BKN/// 31/27 Q1009 NOSIG
RJGG 180300Z 20009KT 7000 FEW015 BKN/// 31/26 Q1009 NOSIG
RJGG 180230Z 20008KT 7000 FEW015 BKN/// 30/26 Q1009 NOSIG
RJGG 180200Z 20007KT 7000 FEW015 BKN/// 30/26 Q1010 NOSIG
RJGG 180130Z 21005KT 7000 FEW015 BKN/// 30/27 Q1010 NOSIG
RJGG 180100Z 21005KT 7000 FEW010 BKN/// 30/26 Q1010 NOSIG
RJGG 180030Z 24004KT 7000 FEW010 BKN/// 29/26 Q1010 NOSIG
RJGG 180000Z 27003KT 7000 FEW010 BKN/// 30/26 Q1010 BECMG 24005KT
RJGG 172330Z 28003KT 7000 FEW010 BKN/// 29/26 Q1011 BECMG 24005KT
RJGG 172300Z 30005KT 7000 FEW010 BKN/// 29/26 Q1011 NOSIG
RJGG 172230Z 32005KT 7000 FEW010 BKN/// 28/26 Q1011 NOSIG
RJGG 172200Z 32005KT 8000 FEW010 BKN/// 28/26 Q1011 NOSIG
RJGG 172130Z 32005KT 8000 FEW010 BKN018 BKN/// 28/26 Q1011 NOSIG
RJGG 172100Z 33003KT 8000 FEW010 BKN020 28/26 Q1011 NOSIG
RJGG 172030Z 33004KT 8000 FEW010 BKN020 28/26 Q1011 NOSIG
RJGG 172000Z 34004KT 8000 FEW010 BKN018 27/26 Q1011 NOSIG
RJGG 171930Z 02003KT 350V050 9000 FEW010 BKN020 27/26 Q1011 NOSIG
RJGG 171900Z 05004KT 9000 FEW015 BKN/// 27/25 Q1011 NOSIG
RJGG 171830Z 06004KT 9000 FEW015 BKN/// 28/25 Q1011 NOSIG
RJGG 171800Z 07004KT 9999 FEW015 BKN/// 28/26 Q1011 NOSIG
RJGG 171730Z 08006KT 9999 FEW020 BKN/// 28/25 Q1011 BECMG 06005KT
RJGG 171700Z 09007KT 9999 FEW020 BKN/// 28/25 Q1010 NOSIG
RJGG 171630Z 10008KT 9999 FEW020 BKN/// 28/26 Q1010 NOSIG
RJGG 171600Z 10009KT 9999 FEW020 BKN/// 28/26 Q1010 NOSIG
RJGG 171530Z 10008KT 9999 FEW020 BKN/// 28/26 Q1010 NOSIG
RJGG 171500Z 10009KT 9999 FEW020 BKN/// 28/26 Q1010 NOSIG
RJGG 171430Z 10009KT 9999 FEW020 BKN/// 28/26 Q1010 NOSIG
RJGG 171400Z 10010KT 9999 FEW030 BKN/// 28/26 Q1010 NOSIG
RJGG 171330Z 11012KT 9999 FEW030 BKN/// 28/26 Q1010 NOSIG
RJGG 171300Z 11011KT 9999 FEW030 BKN/// 28/26 Q1010 NOSIG
RJGG 171230Z 11010KT 9999 FEW030 BKN/// 28/26 Q1010 NOSIG
RJGG 171200Z 11011KT 9999 FEW030 BKN/// 29/26 Q1010 NOSIG
RJGG 171130Z 11010KT 9999 FEW030 BKN/// 29/26 Q1010 NOSIG
RJGG 171100Z 11010KT 9999 FEW030 BKN/// 29/26 Q1010 NOSIG
RJGG 171030Z 11010KT 9999 FEW030 BKN/// 30/26 Q1010 NOSIG
RJGG 171000Z 11009KT 9999 FEW030 BKN/// 30/26 Q1009 NOSIG
RJGG 170930Z 13008KT 9999 FEW030 BKN/// 31/26 Q1009 NOSIG
RJGG 170900Z 14009KT 9999 FEW030 BKN/// 31/26 Q1009 NOSIG
RJGG 170830Z 14009KT 9000 FEW030 BKN/// 32/26 Q1009 NOSIG
RJGG 170800Z 16009KT 9000 FEW030 BKN/// 32/26 Q1009 NOSIG
RJGG 170730Z 16009KT 9000 FEW030 BKN/// 32/26 Q1009 NOSIG
RJGG 170700Z 17011KT 9000 FEW030 BKN/// 32/26 Q1009 NOSIG
RJGG 170630Z 17012KT 9000 FEW030 BKN/// 31/27 Q1009 NOSIG
RJGG 170600Z 17011KT 8000 FEW030 BKN/// 31/27 Q1009 NOSIG
RJGG 170530Z 17012KT 8000 FEW030 BKN/// 31/27 Q1009 NOSIG
RJGG 170500Z 17011KT 8000 FEW030 BKN/// 31/27 Q1010 NOSIG
RJGG 170430Z 19008KT 9000 FEW030 BKN/// 30/27 Q1010 NOSIG
RJGG 170400Z 19007KT 9000 FEW030 BKN/// 31/27 Q1010 NOSIG
RJGG 170330Z 20006KT 8000 FEW030 BKN/// 30/26 Q1010 NOSIG
RJGG 170300Z 20005KT 9000 FEW020 BKN/// 30/26 Q1011 NOSIG
RJGG 170230Z 22004KT 9000 FEW020 BKN/// 30/26 Q1011 NOSIG
RJGG 170200Z 26005KT 8000 FEW020 BKN/// 31/26 Q1011 BECMG 22008KT
RJGG 170130Z 26006KT 8000 FEW015 BKN/// 31/26 Q1011 BECMG 24006KT
RJGG 170100Z 26005KT 8000 FEW015 BKN/// 30/26 Q1012 BECMG 24006KT
RJGG 170030Z 27004KT 8000 FEW015 BKN/// 30/26 Q1012 BECMG 24006KT
RJGG 170000Z 29005KT 8000 FEW015 BKN/// 29/25 Q1012 NOSIG
RJGG 162330Z VRB03KT 8000 FEW014 BKN/// 29/25 Q1012 NOSIG
RJGG 162300Z 05004KT 010V100 8000 FEW013 BKN/// 29/25 Q1012 NOSIG
RJGG 162200Z 08005KT 8000 FEW013 BKN/// 28/25 Q1012 BECMG 04005KT
RJGG 162100Z 06005KT 7000 FEW012 BKN/// 28/25 Q1012 NOSIG
RJGG 162000Z 06004KT 8000 FEW012 SCT014 BKN/// 28/25 Q1012 TEMPO FEW008 BKN012
RJGG 161930Z 10006KT 8000 FEW012 BKN020 BKN/// 28/25 Q1012 BECMG 04005KT TEMPO FEW008 BKN012
RJGG 161900Z 10007KT 9999 FEW015 BKN/// 28/25 Q1012 BECMG 04005KT
RJGG 161830Z 09006KT 9999 FEW025 BKN/// 28/25 Q1012 BECMG 04005KT
RJGG 161800Z 11005KT 9999 FEW025 BKN/// 28/25 Q1011 NOSIG
RJGG 161730Z 11008KT 9999 FEW025 BKN/// 28/25 Q1011 NOSIG
RJGG 161700Z 12009KT 9999 FEW025 BKN/// 28/25 Q1011 NOSIG
RJGG 161630Z 12011KT 9999 FEW025 BKN/// 28/25 Q1011 NOSIG
RJGG 161600Z 12012KT 9999 FEW025 BKN/// 28/25 Q1011 NOSIG
RJGG 161530Z 12011KT 9999 FEW025 BKN/// 28/25 Q1011 NOSIG
RJGG 161500Z 11010KT 9999 FEW025 BKN/// 28/25 Q1011 NOSIG
RJGG 161430Z 12012KT 9999 FEW025 BKN/// 28/25 Q1011 NOSIG
RJGG 161400Z 12011KT 9000 FEW025 BKN/// 28/25 Q1011 NOSIG
RJGG 161330Z 12013KT 9000 FEW025 BKN/// 28/25 Q1011 NOSIG
RJGG 161300Z 12012KT 9000 FEW025 BKN/// 28/26 Q1012 NOSIG
RJGG 161230Z 12014KT 9000 FEW025 BKN/// 28/25 Q1012 NOSIG
RJGG 161200Z 11013KT 9000 FEW025 BKN/// 29/25 Q1011 NOSIG
RJGG 161130Z 10012KT 9000 FEW025 BKN/// 29/26 Q1011 NOSIG
RJGG 161100Z 10011KT 9000 FEW025 BKN/// 29/26 Q1011 NOSIG
RJGG 161030Z 10008KT 9000 FEW025 BKN/// 30/25 Q1010 NOSIG
RJGG 161000Z 12007KT 9999 FEW025 BKN/// 31/25 Q1010 NOSIG
RJGG 160930Z 13007KT 9999 FEW025 BKN/// 31/25 Q1010 NOSIG
RJGG 160900Z 15007KT 9999 FEW025 BKN/// 32/26 Q1009 NOSIG
RJGG 160830Z 15008KT 9999 FEW025 BKN/// 32/26 Q1009 NOSIG
RJGG 160800Z 15009KT 9999 FEW025 BKN/// 33/25 Q1009 NOSIG
RJGG 160730Z 16008KT 9999 FEW025 BKN/// 33/26 Q1009 NOSIG
RJGG 160700Z 16009KT 9999 FEW025 BKN/// 33/26 Q1009 NOSIG
RJGG 160630Z 17010KT 9999 FEW025 BKN/// 32/27 Q1010 NOSIG
RJGG 160600Z 17012KT 9999 FEW025 BKN/// 32/26 Q1010 NOSIG
RJGG 160530Z 17013KT 9999 FEW025 BKN/// 31/26 Q1010 NOSIG
RJGG 160500Z 17012KT 9999 FEW025 BKN/// 32/26 Q1010 NOSIG